createdAt,value
2022-09-15T00:02:24.673Z,3.08
2022-09-15T00:04:51.359Z,2.88
2022-09-15T00:07:17.857Z,3.67
2022-09-15T00:09:44.353Z,3.60
2022-09-15T00:12:10.967Z,3.53
2022-09-15T00:14:37.470Z,2.97
2022-09-15T00:17:04.311Z,3.53
2022-09-15T00:19:30.863Z,4.10
2022-09-15T00:21:57.356Z,3.80
2022-09-15T00:24:23.840Z,3.50
2022-09-15T00:26:50.649Z,3.25
2022-09-15T00:29:17.172Z,4.82
2022-09-15T00:31:43.727Z,2.95
2022-09-15T00:34:12.676Z,3.38
2022-09-15T00:36:39.221Z,3.30
2022-09-15T00:39:05.748Z,3.60
2022-09-15T00:41:32.696Z,3.30
2022-09-15T00:44:02.984Z,3.20
2022-09-15T00:46:38.555Z,3.08
2022-09-15T00:49:09.468Z,3.00
2022-09-15T00:51:50.899Z,3.58
2022-09-15T00:54:26.630Z,3.38
2022-09-15T00:56:56.549Z,3.22
2022-09-15T00:59:26.403Z,3.60
2022-09-15T01:02:01.080Z,3.88
2022-09-15T01:04:27.666Z,2.90
2022-09-15T01:06:59.647Z,3.40
2022-09-15T01:09:49.104Z,3.88
2022-09-15T01:12:16.452Z,2.95
2022-09-15T01:14:42.973Z,3.17
2022-09-15T01:17:34.436Z,3.65
2022-09-15T01:20:11.830Z,3.13
2022-09-15T01:23:26.771Z,4.00
2022-09-15T01:25:53.240Z,3.10
2022-09-15T01:28:53.579Z,2.95
2022-09-15T01:32:17.440Z,3.72
2022-09-15T01:35:00.740Z,3.50
2022-09-15T01:37:34.390Z,3.10
2022-09-15T01:40:02.592Z,3.00
2022-09-15T01:42:32.209Z,3.72
2022-09-15T01:45:05.114Z,3.60
2022-09-15T01:47:34.134Z,3.63
2022-09-15T01:50:10.152Z,3.53
2022-09-15T01:52:40.902Z,4.10
2022-09-15T01:55:14.392Z,3.63
2022-09-15T01:57:40.948Z,3.47
2022-09-15T02:00:08.407Z,3.40
2022-09-15T02:02:49.561Z,4.05
2022-09-15T02:05:38.207Z,3.67
2022-09-15T02:08:27.775Z,4.25
2022-09-15T02:11:12.818Z,3.58
2022-09-15T02:13:48.690Z,3.47
2022-09-15T02:16:24.560Z,3.50
2022-09-15T02:19:08.818Z,3.90
2022-09-15T02:22:07.657Z,3.50
2022-09-15T02:24:41.000Z,3.20
2022-09-15T02:27:13.135Z,3.40
2022-09-15T02:29:42.174Z,3.58
2022-09-15T02:32:09.873Z,3.38
2022-09-15T02:34:41.454Z,4.07
2022-09-15T02:37:09.678Z,3.33
2022-09-15T02:39:42.268Z,4.50
2022-09-15T02:42:09.408Z,3.58
2022-09-15T02:44:36.410Z,3.28
2022-09-15T02:47:03.860Z,2.97
2022-09-15T02:49:30.631Z,2.70
2022-09-15T02:51:57.147Z,3.20
2022-09-15T02:54:23.632Z,3.50
2022-09-15T02:56:50.382Z,3.85
2022-09-15T02:59:16.861Z,3.60
2022-09-15T03:01:44.903Z,3.03
2022-09-15T03:04:11.609Z,2.85
2022-09-15T03:06:38.103Z,3.10
2022-09-15T03:09:07.438Z,3.10
2022-09-15T03:11:35.409Z,2.60
2022-09-15T03:14:04.740Z,2.72
2022-09-15T03:16:34.417Z,3.10
2022-09-15T03:19:01.347Z,2.75
2022-09-15T03:21:29.603Z,2.90
2022-09-15T03:23:57.947Z,3.65
2022-09-15T03:26:24.790Z,2.67
2022-09-15T03:28:51.281Z,3.53
2022-09-15T03:31:17.843Z,3.25
2022-09-15T03:33:44.343Z,3.20
2022-09-15T03:36:11.099Z,3.15
2022-09-15T03:38:37.997Z,3.15
2022-09-15T03:41:10.527Z,2.60
2022-09-15T03:43:37.953Z,3.10
2022-09-15T03:46:07.067Z,2.90
2022-09-15T03:48:35.459Z,3.42
2022-09-15T03:51:03.751Z,3.50
2022-09-15T03:53:35.398Z,2.85
2022-09-15T03:56:31.211Z,3.30
2022-09-15T03:58:59.040Z,2.80
2022-09-15T04:01:26.116Z,3.25
2022-09-15T04:03:52.883Z,3.53
2022-09-15T04:06:22.092Z,3.25
2022-09-15T04:08:52.811Z,3.22
2022-09-15T04:11:21.102Z,3.28
2022-09-15T04:13:48.559Z,3.15
2022-09-15T04:16:18.454Z,3.15
2022-09-15T04:18:45.960Z,2.65
2022-09-15T04:21:15.043Z,3.30
2022-09-15T04:23:43.139Z,2.72
2022-09-15T04:26:19.169Z,2.80
2022-09-15T04:28:45.661Z,3.70
2022-09-15T04:31:14.243Z,2.78
2022-09-15T04:36:11.172Z,2.40
2022-09-15T04:38:38.737Z,3.00
2022-09-15T04:41:06.750Z,4.93
2022-09-15T04:43:34.223Z,3.75
2022-09-15T04:46:00.964Z,3.40
2022-09-15T04:48:28.306Z,3.33
2022-09-15T04:50:54.966Z,3.05
2022-09-15T04:53:21.686Z,3.70
2022-09-15T04:55:48.314Z,3.53
2022-09-15T04:58:14.787Z,3.15
2022-09-15T05:00:45.711Z,3.40
2022-09-15T05:03:14.166Z,3.17
2022-09-15T05:05:41.441Z,2.80
2022-09-15T05:08:08.153Z,3.05
2022-09-15T05:10:34.944Z,3.17
2022-09-15T05:13:01.419Z,3.00
2022-09-15T05:15:27.944Z,3.05
2022-09-15T05:17:54.439Z,3.63
2022-09-15T05:20:20.982Z,3.15
2022-09-15T05:22:47.492Z,2.80
2022-09-15T05:25:14.148Z,3.25
2022-09-15T05:27:40.629Z,3.15
2022-09-15T05:30:35.921Z,3.10
2022-09-15T05:32:54.547Z,3.33
2022-09-15T05:35:21.069Z,2.97
2022-09-15T05:37:47.571Z,2.50
2022-09-15T05:40:15.243Z,2.55
2022-09-15T05:42:41.747Z,2.63
2022-09-15T05:45:08.950Z,2.67
2022-09-15T05:47:35.418Z,3.00
2022-09-15T05:50:01.926Z,3.72
2022-09-15T05:52:28.444Z,3.03
2022-09-15T05:54:58.994Z,2.83
2022-09-15T05:57:25.885Z,2.95
2022-09-15T05:59:52.444Z,2.53
2022-09-15T06:02:19.041Z,2.78
2022-09-15T06:04:45.611Z,2.45
2022-09-15T06:07:12.384Z,3.28
2022-09-15T06:09:39.373Z,2.53
2022-09-15T06:12:06.068Z,2.58
2022-09-15T06:14:32.818Z,2.63
2022-09-15T06:16:59.304Z,2.58
2022-09-15T06:19:25.753Z,2.95
2022-09-15T06:21:52.735Z,2.58
2022-09-15T06:24:19.440Z,3.10
2022-09-15T06:26:45.955Z,2.40
2022-09-15T06:29:12.983Z,2.80
2022-09-15T06:31:39.583Z,2.83
2022-09-15T06:34:06.676Z,2.30
2022-09-15T06:36:33.180Z,2.85
2022-09-15T06:39:00.079Z,2.70
2022-09-15T06:41:33.051Z,3.10
2022-09-15T06:44:13.820Z,3.03
2022-09-15T06:46:40.315Z,3.10
2022-09-15T06:49:07.085Z,3.40
2022-09-15T06:51:35.554Z,2.97
2022-09-15T06:56:30.949Z,3.05
2022-09-15T06:59:00.081Z,2.63
2022-09-15T07:01:29.417Z,2.92
2022-09-15T07:03:58.122Z,2.58
2022-09-15T07:06:27.259Z,3.13
2022-09-15T07:08:53.940Z,3.17
2022-09-15T07:11:20.596Z,3.65
2022-09-15T07:13:50.395Z,2.70
2022-09-15T07:16:19.074Z,2.90
2022-09-15T07:18:46.623Z,2.85
2022-09-15T07:21:16.647Z,2.60
2022-09-15T07:23:44.258Z,3.40
2022-09-15T07:26:13.907Z,3.20
2022-09-15T07:28:43.733Z,2.85
2022-09-15T07:31:12.507Z,2.90
2022-09-15T07:33:39.300Z,2.97
2022-09-15T07:36:07.890Z,2.78
2022-09-15T07:38:40.236Z,2.60
2022-09-15T07:41:14.543Z,3.38
2022-09-15T07:43:45.650Z,3.03
2022-09-15T07:46:12.224Z,3.15
2022-09-15T07:48:38.904Z,2.47
2022-09-15T07:51:05.611Z,3.20
2022-09-15T07:53:32.763Z,3.25
2022-09-15T07:55:59.208Z,3.20
2022-09-15T07:58:25.747Z,4.85
2022-09-15T08:00:52.545Z,3.72
2022-09-15T08:03:19.164Z,4.28
2022-09-15T08:05:46.235Z,3.63
2022-09-15T08:08:12.999Z,4.30
2022-09-15T08:10:41.728Z,3.17
2022-09-15T08:13:08.472Z,4.00
2022-09-15T08:15:38.713Z,4.10
2022-09-15T08:18:05.887Z,3.80
2022-09-15T08:20:32.853Z,3.58
2022-09-15T08:22:59.481Z,3.20
2022-09-15T08:25:26.057Z,2.97
2022-09-15T08:27:54.431Z,3.42
2022-09-15T08:30:21.867Z,3.33
2022-09-15T08:32:48.860Z,3.92
2022-09-15T08:35:15.927Z,3.60
2022-09-15T08:37:42.667Z,3.88
2022-09-15T08:40:22.452Z,3.88
2022-09-15T08:42:52.124Z,3.97
2022-09-15T08:45:28.606Z,4.93
2022-09-15T08:48:00.220Z,4.18
2022-09-15T08:50:40.899Z,4.80
2022-09-15T08:53:19.943Z,5.55
2022-09-15T08:55:52.574Z,4.80
2022-09-15T08:58:25.298Z,5.22
2022-09-15T09:01:12.062Z,5.03
2022-09-15T09:03:58.916Z,4.78
2022-09-15T09:07:03.751Z,3.85
2022-09-15T09:09:44.989Z,4.82
2022-09-15T09:12:29.309Z,4.32
2022-09-15T09:15:27.077Z,3.78
2022-09-15T09:18:35.321Z,4.75
2022-09-15T09:21:16.923Z,3.72
2022-09-15T09:23:49.834Z,4.78
2022-09-15T09:26:16.597Z,4.55
2022-09-15T09:28:50.192Z,4.45
2022-09-15T09:31:21.376Z,4.20
2022-09-15T09:33:56.977Z,4.57
2022-09-15T09:36:23.676Z,4.57
2022-09-15T09:38:50.958Z,5.57
2022-09-15T09:43:48.893Z,4.45
2022-09-15T09:46:18.051Z,4.47
2022-09-15T09:48:52.224Z,4.80
2022-09-15T09:51:39.206Z,4.80
2022-09-15T09:56:44.611Z,4.22
2022-09-15T09:59:44.839Z,4.88
2022-09-15T10:02:11.285Z,4.50
2022-09-15T10:04:58.703Z,3.97
2022-09-15T10:07:26.761Z,5.03
2022-09-15T10:09:59.677Z,6.95
2022-09-15T10:12:32.793Z,5.57
2022-09-15T10:15:05.192Z,4.93
2022-09-15T10:17:52.232Z,5.30
2022-09-15T10:20:25.451Z,5.70
2022-09-15T10:22:52.545Z,4.93
2022-09-15T10:25:22.058Z,5.70
2022-09-15T10:28:14.739Z,5.97
2022-09-15T10:30:59.825Z,4.60
2022-09-15T10:33:29.047Z,4.43
2022-09-15T10:36:02.111Z,4.22
2022-09-15T10:38:40.695Z,2.85
2022-09-15T10:41:28.772Z,2.78
2022-09-15T10:44:32.961Z,2.47
2022-09-15T10:47:35.603Z,2.67
2022-09-15T10:50:34.481Z,2.55
2022-09-15T10:53:22.300Z,2.15
2022-09-15T10:56:18.263Z,2.58
2022-09-15T10:58:56.886Z,2.55
2022-09-15T11:01:29.667Z,2.08
2022-09-15T11:04:20.891Z,2.50
2022-09-15T11:07:07.699Z,1.95
2022-09-15T11:09:57.444Z,2.03
2022-09-15T11:12:49.540Z,2.38
2022-09-15T11:15:35.842Z,2.15
2022-09-15T11:18:41.488Z,1.90
2022-09-15T11:21:24.821Z,2.10
2022-09-15T11:24:03.624Z,2.00
2022-09-15T11:26:37.003Z,2.00
2022-09-15T11:29:11.129Z,1.85
2022-09-15T11:31:41.980Z,3.40
2022-09-15T11:34:23.380Z,2.70
2022-09-15T11:36:49.868Z,2.55
2022-09-15T11:39:33.190Z,2.63
2022-09-15T11:42:19.183Z,3.42
2022-09-15T11:44:47.951Z,2.92
2022-09-15T11:47:26.257Z,3.03
2022-09-15T11:50:11.021Z,3.17
2022-09-15T11:52:52.212Z,2.80
2022-09-15T11:55:54.258Z,3.53
2022-09-15T11:58:32.969Z,3.33
2022-09-15T12:01:02.570Z,3.95
2022-09-15T12:03:48.302Z,2.80
2022-09-15T12:06:29.736Z,3.33
2022-09-15T12:09:02.118Z,3.35
2022-09-15T12:11:32.167Z,2.70
2022-09-15T12:13:59.953Z,3.03
2022-09-15T12:16:28.090Z,2.42
2022-09-15T12:18:56.473Z,2.58
2022-09-15T12:21:25.979Z,2.47
2022-09-15T12:24:23.436Z,2.42
2022-09-15T12:29:22.456Z,1.80
2022-09-15T12:31:49.029Z,2.28
2022-09-15T12:34:37.014Z,2.03
2022-09-15T12:37:10.530Z,3.33
2022-09-15T12:39:42.275Z,2.17
2022-09-15T12:42:17.989Z,2.60
2022-09-15T12:44:49.961Z,2.15
2022-09-15T12:47:31.759Z,2.60
2022-09-15T12:50:07.231Z,2.70
2022-09-15T12:52:44.949Z,2.17
2022-09-15T12:57:52.475Z,2.33
2022-09-15T13:00:32.677Z,2.25
2022-09-15T13:03:00.462Z,2.42
2022-09-15T13:08:15.312Z,2.30
2022-09-15T13:10:59.518Z,2.55
2022-09-15T13:13:43.792Z,2.42
2022-09-15T13:16:33.706Z,2.80
2022-09-15T13:19:08.928Z,3.10
2022-09-15T13:21:38.391Z,3.10
2022-09-15T13:24:08.406Z,2.65
2022-09-15T13:26:37.501Z,2.90
2022-09-15T13:29:06.354Z,2.50
2022-09-15T13:31:48.122Z,2.50
2022-09-15T13:38:06.935Z,2.42
2022-09-15T13:41:14.440Z,2.92
2022-09-15T13:43:47.449Z,3.33
2022-09-15T13:46:43.508Z,3.03
2022-09-15T13:49:37.318Z,3.00
2022-09-15T13:52:18.705Z,2.90
2022-09-15T13:55:17.355Z,2.97
2022-09-15T14:00:44.195Z,2.60
2022-09-15T14:03:16.345Z,2.78
2022-09-15T14:05:44.703Z,2.85
2022-09-15T14:08:19.350Z,2.40
2022-09-15T14:10:50.334Z,2.90
2022-09-15T14:13:21.202Z,2.70
2022-09-15T14:16:19.146Z,3.08
2022-09-15T14:18:46.646Z,3.03
2022-09-15T14:21:25.034Z,3.15
2022-09-15T14:23:57.827Z,3.28
2022-09-15T14:26:30.576Z,2.55
2022-09-15T14:29:02.846Z,2.90
2022-09-15T14:31:37.258Z,3.25
2022-09-15T14:34:08.341Z,3.50
2022-09-15T14:36:35.156Z,2.92
2022-09-15T14:39:27.878Z,3.30
2022-09-15T14:41:54.486Z,3.22
2022-09-15T14:47:27.849Z,2.97
2022-09-15T14:50:24.092Z,3.40
2022-09-15T14:52:54.888Z,2.60
2022-09-15T14:55:42.377Z,3.00
2022-09-15T14:58:30.291Z,3.78
2022-09-15T15:01:15.524Z,3.10
2022-09-15T15:03:57.309Z,2.78
2022-09-15T15:06:59.140Z,3.00
2022-09-15T15:09:44.675Z,2.72
2022-09-15T15:12:26.475Z,2.65
2022-09-15T15:14:55.068Z,2.30
2022-09-15T15:17:30.184Z,2.28
2022-09-15T15:20:18.897Z,2.75
2022-09-15T15:22:46.181Z,2.08
2022-09-15T15:25:32.159Z,3.97
2022-09-15T15:28:00.139Z,1.95
2022-09-15T15:30:35.298Z,1.70
2022-09-15T15:33:19.442Z,2.03
2022-09-15T15:35:46.717Z,2.10
2022-09-15T15:38:18.335Z,3.22
2022-09-15T15:40:45.773Z,1.88
2022-09-15T15:43:26.469Z,2.47
2022-09-15T15:46:00.976Z,1.60
2022-09-15T15:48:32.820Z,1.73
2022-09-15T15:51:04.729Z,1.60
2022-09-15T15:53:31.513Z,2.20
2022-09-15T15:55:59.705Z,1.58
2022-09-15T15:58:26.362Z,1.63
2022-09-15T16:00:56.383Z,2.03
2022-09-15T16:03:24.539Z,2.03
2022-09-15T16:05:59.418Z,1.50
2022-09-15T16:08:39.701Z,1.58
2022-09-15T16:11:09.813Z,1.20
2022-09-15T16:13:36.328Z,1.55
2022-09-15T16:16:13.895Z,1.77
2022-09-15T16:18:40.555Z,1.83
2022-09-15T16:21:07.076Z,1.85
2022-09-15T16:23:33.762Z,1.67
2022-09-15T16:26:05.540Z,1.42
2022-09-15T16:28:32.103Z,1.70
2022-09-15T16:30:59.398Z,1.90
2022-09-15T16:33:26.599Z,1.63
2022-09-15T16:35:55.808Z,1.70
2022-09-15T16:38:25.693Z,1.40
2022-09-15T16:40:52.652Z,1.90
2022-09-15T16:43:22.515Z,2.20
2022-09-15T16:45:49.891Z,1.40
2022-09-15T16:48:17.168Z,2.47
2022-09-15T16:50:55.821Z,1.73
2022-09-15T16:53:31.500Z,2.60
2022-09-15T16:55:58.030Z,2.47
2022-09-15T16:58:24.527Z,1.98
2022-09-15T17:00:52.533Z,2.75
2022-09-15T17:03:21.859Z,4.63
2022-09-15T17:05:53.311Z,4.70
2022-09-15T17:08:22.309Z,3.35
2022-09-15T17:10:49.846Z,2.47
2022-09-15T17:13:21.659Z,1.50
2022-09-15T17:15:50.892Z,2.53
2022-09-15T17:18:17.426Z,2.70
2022-09-15T17:20:47.005Z,1.83
2022-09-15T17:23:23.570Z,2.17
2022-09-15T17:25:59.020Z,2.30
2022-09-15T17:28:28.802Z,2.10
2022-09-15T17:31:05.961Z,2.20
2022-09-15T17:33:33.252Z,2.60
2022-09-15T17:36:00.353Z,1.88
2022-09-15T17:38:27.159Z,1.60
2022-09-15T17:40:55.288Z,2.05
2022-09-15T17:43:25.178Z,2.00
2022-09-15T17:45:52.524Z,2.13
2022-09-15T17:48:19.704Z,2.30
2022-09-15T17:50:48.819Z,2.00
2022-09-15T17:53:17.079Z,2.40
2022-09-15T17:58:10.483Z,2.17
2022-09-15T18:00:39.315Z,2.20
2022-09-15T18:03:17.351Z,1.63
2022-09-15T18:05:43.865Z,2.10
2022-09-15T18:08:10.408Z,2.35
2022-09-15T18:10:37.527Z,1.75
2022-09-15T18:13:06.301Z,2.85
2022-09-15T18:15:34.794Z,1.80
2022-09-15T18:18:04.186Z,2.03
2022-09-15T18:20:32.736Z,2.00
2022-09-15T18:23:00.113Z,2.10
2022-09-15T18:25:36.823Z,2.50
2022-09-15T18:28:04.027Z,2.75
2022-09-15T18:30:33.681Z,3.30
2022-09-15T18:33:00.335Z,2.25
2022-09-15T18:35:26.900Z,2.47
2022-09-15T18:37:59.395Z,2.40
2022-09-15T18:40:27.507Z,1.95
2022-09-15T18:42:54.224Z,2.90
2022-09-15T18:45:21.773Z,1.95
2022-09-15T18:47:50.304Z,2.57
2022-09-15T18:50:18.960Z,3.22
2022-09-15T18:52:45.832Z,3.63
2022-09-15T18:55:22.671Z,3.83
2022-09-15T18:57:49.546Z,3.25
2022-09-15T19:00:19.674Z,2.50
2022-09-15T19:02:46.498Z,2.33
2022-09-15T19:05:15.613Z,2.70
2022-09-15T19:07:43.506Z,3.15
2022-09-15T19:10:11.593Z,2.88
2022-09-15T19:12:38.854Z,2.70
2022-09-15T19:15:10.785Z,3.25
2022-09-15T19:17:38.724Z,3.80
2022-09-15T19:20:07.458Z,6.43
2022-09-15T19:22:34.627Z,5.40
2022-09-15T19:25:01.400Z,4.53
2022-09-15T19:27:28.031Z,4.70
2022-09-15T19:29:54.693Z,3.33
2022-09-15T19:32:23.439Z,3.22
2022-09-15T19:34:50.035Z,3.35
2022-09-15T19:37:19.082Z,3.53
2022-09-15T19:39:46.872Z,3.60
2022-09-15T19:42:16.905Z,3.10
2022-09-15T19:44:43.673Z,2.90
2022-09-15T19:47:10.502Z,2.78
2022-09-15T19:49:37.144Z,2.40
2022-09-15T19:52:05.298Z,2.33
2022-09-15T19:54:32.168Z,4.38
2022-09-15T19:56:58.730Z,3.75
2022-09-15T19:59:30.202Z,2.70
2022-09-15T20:01:58.069Z,2.97
2022-09-15T20:04:24.819Z,3.10
2022-09-15T20:06:51.821Z,2.95
2022-09-15T20:09:18.765Z,3.80
2022-09-15T20:11:45.499Z,3.17
2022-09-15T20:14:12.011Z,3.40
2022-09-15T20:16:38.540Z,3.95
2022-09-15T20:19:05.672Z,3.42
2022-09-15T20:21:51.613Z,3.35
2022-09-15T20:24:19.044Z,2.53
2022-09-15T20:26:45.575Z,2.85
2022-09-15T20:29:13.113Z,2.92
2022-09-15T20:31:40.031Z,3.95
2022-09-15T20:34:06.578Z,4.00
2022-09-15T20:36:36.433Z,5.05
2022-09-15T20:39:04.572Z,4.03
2022-09-15T20:41:34.409Z,3.40
2022-09-15T20:44:01.070Z,4.13
2022-09-15T20:46:29.322Z,3.65
2022-09-15T20:48:55.868Z,3.53
2022-09-15T20:51:25.474Z,3.50
2022-09-15T20:53:54.290Z,4.38
2022-09-15T20:56:24.873Z,3.15
2022-09-15T20:58:56.560Z,2.60
2022-09-15T21:01:32.921Z,3.00
2022-09-15T21:03:59.483Z,3.30
2022-09-15T21:06:27.986Z,2.45
2022-09-15T21:11:23.936Z,2.83
2022-09-15T21:13:50.798Z,2.53
2022-09-15T21:16:21.906Z,2.80
2022-09-15T21:18:49.186Z,2.75
2022-09-15T21:21:21.949Z,3.08
2022-09-15T21:24:03.416Z,3.72
2022-09-15T21:26:32.593Z,5.50
2022-09-15T21:28:59.163Z,3.50
2022-09-15T21:31:28.438Z,4.18
2022-09-15T21:33:55.580Z,2.97
2022-09-15T21:36:30.655Z,3.47
2022-09-15T21:38:59.028Z,3.03
2022-09-15T21:41:28.052Z,2.67
2022-09-15T21:43:55.276Z,3.33
2022-09-15T21:46:27.429Z,2.95
2022-09-15T21:48:55.957Z,2.17
2022-09-15T21:53:56.265Z,2.75
2022-09-15T21:56:23.599Z,2.72
2022-09-15T21:58:50.091Z,2.88
2022-09-15T22:01:22.725Z,3.10
2022-09-15T22:04:10.311Z,2.83
2022-09-15T22:06:40.427Z,2.53
2022-09-15T22:09:14.431Z,2.47
2022-09-15T22:11:41.238Z,2.72
2022-09-15T22:14:08.696Z,2.75
2022-09-15T22:16:37.340Z,3.58
2022-09-15T22:19:05.356Z,3.28
2022-09-15T22:21:32.604Z,3.47
2022-09-15T22:23:59.524Z,3.38
2022-09-15T22:26:28.206Z,3.42
2022-09-15T22:28:56.054Z,3.33
2022-09-15T22:31:24.149Z,2.75
2022-09-15T22:33:50.885Z,2.63
2022-09-15T22:36:28.603Z,2.97
2022-09-15T22:39:02.771Z,2.40
2022-09-15T22:41:29.713Z,2.50
2022-09-15T22:43:56.405Z,2.90
2022-09-15T22:46:23.053Z,2.95
2022-09-15T22:48:49.625Z,3.10
2022-09-15T22:51:16.465Z,3.55
2022-09-15T22:53:43.048Z,3.20
2022-09-15T22:56:20.651Z,3.13
2022-09-15T22:58:48.497Z,3.10
2022-09-15T23:01:17.749Z,2.85
2022-09-15T23:03:47.451Z,3.17
2022-09-15T23:06:14.419Z,2.30
2022-09-15T23:08:41.181Z,2.47
2022-09-15T23:11:10.853Z,2.47
2022-09-15T23:13:38.068Z,2.63
2022-09-15T23:16:05.768Z,2.47
2022-09-15T23:18:33.262Z,2.75
2022-09-15T23:21:02.812Z,2.92
2022-09-15T23:23:30.227Z,2.58
2022-09-15T23:25:56.779Z,2.60
2022-09-15T23:28:24.491Z,2.30
2022-09-15T23:30:53.065Z,1.95
2022-09-15T23:35:47.034Z,2.35
2022-09-15T23:38:13.969Z,2.28
2022-09-15T23:40:42.578Z,2.20
2022-09-15T23:43:13.817Z,3.03
2022-09-15T23:45:40.502Z,2.67
2022-09-15T23:48:08.296Z,3.05
2022-09-15T23:50:35.841Z,2.28
2022-09-15T23:53:02.595Z,2.83
2022-09-15T23:55:29.142Z,2.55
2022-09-15T23:57:56.094Z,2.15
